sensor_id;sensor_type;location;lat;lon;timestamp;P1;durP1;ratioP1;P2;durP2;ratioP2
3698;SDS011;1865;50.918;7.092;2022-10-31T00:01:44;15.13;;;5.70;;
3698;SDS011;1865;50.918;7.092;2022-10-31T00:04:10;15.40;;;5.77;;
3698;SDS011;1865;50.918;7.092;2022-10-31T00:06:35;33.77;;;6.37;;
3698;SDS011;1865;50.918;7.092;2022-10-31T00:09:02;17.13;;;5.97;;
3698;SDS011;1865;50.918;7.092;2022-10-31T00:11:29;17.10;;;5.80;;
3698;SDS011;1865;50.918;7.092;2022-10-31T00:13:56;20.00;;;6.20;;
3698;SDS011;1865;50.918;7.092;2022-10-31T00:16:23;16.47;;;5.93;;
3698;SDS011;1865;50.918;7.092;2022-10-31T00:18:50;15.93;;;5.20;;
3698;SDS011;1865;50.918;7.092;2022-10-31T00:21:17;16.83;;;5.50;;
3698;SDS011;1865;50.918;7.092;2022-10-31T00:23:42;13.37;;;5.33;;
3698;SDS011;1865;50.918;7.092;2022-10-31T00:26:09;15.43;;;5.80;;
3698;SDS011;1865;50.918;7.092;2022-10-31T00:28:34;19.00;;;6.33;;
3698;SDS011;1865;50.918;7.092;2022-10-31T00:31:02;17.77;;;6.33;;
3698;SDS011;1865;50.918;7.092;2022-10-31T00:33:29;17.63;;;7.17;;
3698;SDS011;1865;50.918;7.092;2022-10-31T00:35:56;15.13;;;5.83;;
3698;SDS011;1865;50.918;7.092;2022-10-31T00:38:22;15.07;;;5.97;;
3698;SDS011;1865;50.918;7.092;2022-10-31T00:40:47;18.50;;;6.93;;
3698;SDS011;1865;50.918;7.092;2022-10-31T00:43:13;17.53;;;6.10;;
3698;SDS011;1865;50.918;7.092;2022-10-31T00:45:38;17.73;;;6.13;;
3698;SDS011;1865;50.918;7.092;2022-10-31T00:48:04;16.83;;;6.43;;
3698;SDS011;1865;50.918;7.092;2022-10-31T00:50:31;15.47;;;5.90;;
3698;SDS011;1865;50.918;7.092;2022-10-31T00:52:56;22.63;;;5.83;;
3698;SDS011;1865;50.918;7.092;2022-10-31T00:55:22;13.90;;;5.83;;
3698;SDS011;1865;50.918;7.092;2022-10-31T00:57:48;20.33;;;6.10;;
3698;SDS011;1865;50.918;7.092;2022-10-31T01:00:14;21.53;;;5.77;;
3698;SDS011;1865;50.918;7.092;2022-10-31T01:02:40;15.10;;;6.47;;
3698;SDS011;1865;50.918;7.092;2022-10-31T01:05:05;14.30;;;5.60;;
3698;SDS011;1865;50.918;7.092;2022-10-31T01:07:31;19.63;;;6.13;;
3698;SDS011;1865;50.918;7.092;2022-10-31T01:10:00;16.13;;;5.83;;
3698;SDS011;1865;50.918;7.092;2022-10-31T01:12:25;18.90;;;6.70;;
3698;SDS011;1865;50.918;7.092;2022-10-31T01:14:51;17.37;;;7.00;;
3698;SDS011;1865;50.918;7.092;2022-10-31T01:17:17;16.27;;;6.80;;
3698;SDS011;1865;50.918;7.092;2022-10-31T01:19:44;15.43;;;6.30;;
3698;SDS011;1865;50.918;7.092;2022-10-31T01:22:11;13.73;;;6.30;;
3698;SDS011;1865;50.918;7.092;2022-10-31T01:24:37;16.63;;;6.13;;
3698;SDS011;1865;50.918;7.092;2022-10-31T01:27:04;20.63;;;7.60;;
3698;SDS011;1865;50.918;7.092;2022-10-31T01:29:30;16.47;;;6.10;;
3698;SDS011;1865;50.918;7.092;2022-10-31T01:31:57;15.13;;;5.73;;
3698;SDS011;1865;50.918;7.092;2022-10-31T01:34:22;19.40;;;6.60;;
3698;SDS011;1865;50.918;7.092;2022-10-31T01:36:48;23.30;;;7.30;;
3698;SDS011;1865;50.918;7.092;2022-10-31T01:39:16;20.43;;;5.60;;
3698;SDS011;1865;50.918;7.092;2022-10-31T01:41:44;16.90;;;6.03;;
3698;SDS011;1865;50.918;7.092;2022-10-31T01:47:06;12.40;;;5.97;;
3698;SDS011;1865;50.918;7.092;2022-10-31T01:49:44;14.50;;;6.17;;
3698;SDS011;1865;50.918;7.092;2022-10-31T01:52:19;22.80;;;6.57;;
3698;SDS011;1865;50.918;7.092;2022-10-31T01:54:51;15.70;;;6.30;;
3698;SDS011;1865;50.918;7.092;2022-10-31T01:57:24;16.47;;;5.53;;
3698;SDS011;1865;50.918;7.092;2022-10-31T01:59:52;16.07;;;6.67;;
3698;SDS011;1865;50.918;7.092;2022-10-31T02:02:22;11.80;;;5.47;;
3698;SDS011;1865;50.918;7.092;2022-10-31T02:04:48;14.87;;;5.87;;
3698;SDS011;1865;50.918;7.092;2022-10-31T02:08:00;22.50;;;6.20;;
3698;SDS011;1865;50.918;7.092;2022-10-31T02:10:24;10.90;;;5.77;;
3698;SDS011;1865;50.918;7.092;2022-10-31T02:12:50;13.93;;;6.10;;
3698;SDS011;1865;50.918;7.092;2022-10-31T02:15:18;15.83;;;5.90;;
3698;SDS011;1865;50.918;7.092;2022-10-31T02:17:44;16.50;;;6.23;;
3698;SDS011;1865;50.918;7.092;2022-10-31T02:20:13;21.23;;;7.30;;
3698;SDS011;1865;50.918;7.092;2022-10-31T02:28:31;14.77;;;6.10;;
3698;SDS011;1865;50.918;7.092;2022-10-31T02:31:26;19.80;;;6.47;;
3698;SDS011;1865;50.918;7.092;2022-10-31T02:34:05;21.40;;;6.60;;
3698;SDS011;1865;50.918;7.092;2022-10-31T02:36:49;19.10;;;6.27;;
3698;SDS011;1865;50.918;7.092;2022-10-31T02:42:15;14.53;;;6.10;;
3698;SDS011;1865;50.918;7.092;2022-10-31T02:45:00;14.20;;;5.93;;
3698;SDS011;1865;50.918;7.092;2022-10-31T02:47:37;21.40;;;6.37;;
3698;SDS011;1865;50.918;7.092;2022-10-31T02:50:11;23.57;;;6.27;;
3698;SDS011;1865;50.918;7.092;2022-10-31T02:52:43;19.00;;;6.03;;
3698;SDS011;1865;50.918;7.092;2022-10-31T02:55:39;18.90;;;6.83;;
3698;SDS011;1865;50.918;7.092;2022-10-31T02:58:01;15.00;;;6.40;;
3698;SDS011;1865;50.918;7.092;2022-10-31T03:00:42;13.90;;;6.40;;
3698;SDS011;1865;50.918;7.092;2022-10-31T03:03:53;17.87;;;6.40;;
3698;SDS011;1865;50.918;7.092;2022-10-31T03:06:35;20.43;;;5.90;;
3698;SDS011;1865;50.918;7.092;2022-10-31T03:09:22;18.53;;;7.30;;
3698;SDS011;1865;50.918;7.092;2022-10-31T03:12:14;21.93;;;6.90;;
3698;SDS011;1865;50.918;7.092;2022-10-31T03:15:08;17.33;;;6.30;;
3698;SDS011;1865;50.918;7.092;2022-10-31T03:17:49;15.57;;;5.63;;
3698;SDS011;1865;50.918;7.092;2022-10-31T03:20:20;21.93;;;6.60;;
3698;SDS011;1865;50.918;7.092;2022-10-31T03:22:49;21.10;;;6.87;;
3698;SDS011;1865;50.918;7.092;2022-10-31T03:25:16;22.63;;;5.80;;
3698;SDS011;1865;50.918;7.092;2022-10-31T03:27:42;25.07;;;7.47;;
3698;SDS011;1865;50.918;7.092;2022-10-31T03:30:10;18.13;;;6.40;;
3698;SDS011;1865;50.918;7.092;2022-10-31T03:32:42;15.53;;;6.67;;
3698;SDS011;1865;50.918;7.092;2022-10-31T03:35:13;14.33;;;5.77;;
3698;SDS011;1865;50.918;7.092;2022-10-31T03:37:42;15.47;;;6.90;;
3698;SDS011;1865;50.918;7.092;2022-10-31T03:40:09;14.83;;;5.10;;
3698;SDS011;1865;50.918;7.092;2022-10-31T03:42:38;16.80;;;5.30;;
3698;SDS011;1865;50.918;7.092;2022-10-31T03:45:13;16.00;;;6.63;;
3698;SDS011;1865;50.918;7.092;2022-10-31T03:47:49;17.50;;;6.40;;
3698;SDS011;1865;50.918;7.092;2022-10-31T03:50:15;16.13;;;5.43;;
3698;SDS011;1865;50.918;7.092;2022-10-31T03:55:28;17.90;;;6.87;;
3698;SDS011;1865;50.918;7.092;2022-10-31T03:58:12;19.90;;;6.20;;
3698;SDS011;1865;50.918;7.092;2022-10-31T04:00:58;24.87;;;6.23;;
3698;SDS011;1865;50.918;7.092;2022-10-31T04:03:27;15.87;;;6.53;;
3698;SDS011;1865;50.918;7.092;2022-10-31T04:05:57;16.93;;;7.17;;
3698;SDS011;1865;50.918;7.092;2022-10-31T04:08:26;13.40;;;6.73;;
3698;SDS011;1865;50.918;7.092;2022-10-31T04:10:55;16.50;;;7.00;;
3698;SDS011;1865;50.918;7.092;2022-10-31T04:13:24;16.93;;;6.60;;
3698;SDS011;1865;50.918;7.092;2022-10-31T04:15:57;29.00;;;6.67;;
3698;SDS011;1865;50.918;7.092;2022-10-31T04:18:23;22.60;;;6.90;;
3698;SDS011;1865;50.918;7.092;2022-10-31T04:20:58;18.03;;;7.00;;
3698;SDS011;1865;50.918;7.092;2022-10-31T04:23:29;20.63;;;7.13;;
3698;SDS011;1865;50.918;7.092;2022-10-31T04:25:55;19.20;;;6.43;;
3698;SDS011;1865;50.918;7.092;2022-10-31T04:28:21;22.67;;;7.43;;
3698;SDS011;1865;50.918;7.092;2022-10-31T04:30:46;15.07;;;7.07;;
3698;SDS011;1865;50.918;7.092;2022-10-31T04:33:12;14.93;;;6.80;;
3698;SDS011;1865;50.918;7.092;2022-10-31T04:35:38;16.67;;;6.60;;
3698;SDS011;1865;50.918;7.092;2022-10-31T04:38:03;20.20;;;6.50;;
3698;SDS011;1865;50.918;7.092;2022-10-31T04:40:29;25.97;;;7.13;;
3698;SDS011;1865;50.918;7.092;2022-10-31T04:42:56;18.00;;;6.17;;
3698;SDS011;1865;50.918;7.092;2022-10-31T04:45:22;13.23;;;6.50;;
3698;SDS011;1865;50.918;7.092;2022-10-31T04:47:47;16.53;;;6.10;;
3698;SDS011;1865;50.918;7.092;2022-10-31T04:50:13;15.17;;;5.93;;
3698;SDS011;1865;50.918;7.092;2022-10-31T04:52:39;12.90;;;5.90;;
3698;SDS011;1865;50.918;7.092;2022-10-31T04:55:05;16.33;;;5.80;;
3698;SDS011;1865;50.918;7.092;2022-10-31T04:57:43;14.40;;;6.37;;
3698;SDS011;1865;50.918;7.092;2022-10-31T05:00:11;13.67;;;5.50;;
3698;SDS011;1865;50.918;7.092;2022-10-31T05:02:44;14.47;;;5.73;;
3698;SDS011;1865;50.918;7.092;2022-10-31T05:05:13;14.43;;;6.40;;
3698;SDS011;1865;50.918;7.092;2022-10-31T05:07:41;14.73;;;6.47;;
3698;SDS011;1865;50.918;7.092;2022-10-31T05:10:09;19.03;;;6.50;;
3698;SDS011;1865;50.918;7.092;2022-10-31T05:12:36;15.50;;;6.30;;
3698;SDS011;1865;50.918;7.092;2022-10-31T05:15:02;19.17;;;6.10;;
3698;SDS011;1865;50.918;7.092;2022-10-31T05:17:30;15.10;;;6.00;;
3698;SDS011;1865;50.918;7.092;2022-10-31T05:19:57;27.43;;;6.40;;
3698;SDS011;1865;50.918;7.092;2022-10-31T05:22:22;16.37;;;5.50;;
3698;SDS011;1865;50.918;7.092;2022-10-31T05:24:47;13.50;;;6.57;;
3698;SDS011;1865;50.918;7.092;2022-10-31T05:27:13;15.00;;;5.80;;
3698;SDS011;1865;50.918;7.092;2022-10-31T05:29:39;15.20;;;6.00;;
3698;SDS011;1865;50.918;7.092;2022-10-31T05:32:04;17.63;;;6.77;;
3698;SDS011;1865;50.918;7.092;2022-10-31T05:34:30;15.63;;;6.30;;
3698;SDS011;1865;50.918;7.092;2022-10-31T05:36:55;20.63;;;7.13;;
3698;SDS011;1865;50.918;7.092;2022-10-31T05:39:21;17.30;;;7.50;;
3698;SDS011;1865;50.918;7.092;2022-10-31T05:41:47;14.73;;;6.07;;
3698;SDS011;1865;50.918;7.092;2022-10-31T05:44:13;19.93;;;5.90;;
3698;SDS011;1865;50.918;7.092;2022-10-31T05:46:38;14.93;;;6.43;;
3698;SDS011;1865;50.918;7.092;2022-10-31T05:49:04;15.63;;;6.00;;
3698;SDS011;1865;50.918;7.092;2022-10-31T05:51:31;15.67;;;5.90;;
3698;SDS011;1865;50.918;7.092;2022-10-31T05:53:58;15.07;;;5.83;;
3698;SDS011;1865;50.918;7.092;2022-10-31T05:56:23;17.00;;;6.77;;
3698;SDS011;1865;50.918;7.092;2022-10-31T05:58:49;12.80;;;6.27;;
3698;SDS011;1865;50.918;7.092;2022-10-31T06:01:14;13.30;;;6.67;;
3698;SDS011;1865;50.918;7.092;2022-10-31T06:03:40;15.80;;;6.40;;
3698;SDS011;1865;50.918;7.092;2022-10-31T06:06:10;23.23;;;6.73;;
3698;SDS011;1865;50.918;7.092;2022-10-31T06:08:36;16.47;;;6.77;;
3698;SDS011;1865;50.918;7.092;2022-10-31T06:11:02;12.37;;;5.90;;
3698;SDS011;1865;50.918;7.092;2022-10-31T06:13:27;19.50;;;6.90;;
3698;SDS011;1865;50.918;7.092;2022-10-31T06:15:53;21.97;;;6.10;;
3698;SDS011;1865;50.918;7.092;2022-10-31T06:18:18;17.00;;;6.90;;
3698;SDS011;1865;50.918;7.092;2022-10-31T06:20:44;18.33;;;8.10;;
3698;SDS011;1865;50.918;7.092;2022-10-31T06:23:09;24.13;;;9.10;;
3698;SDS011;1865;50.918;7.092;2022-10-31T06:25:35;13.63;;;7.70;;
3698;SDS011;1865;50.918;7.092;2022-10-31T06:28:00;16.43;;;7.83;;
3698;SDS011;1865;50.918;7.092;2022-10-31T06:30:26;20.83;;;7.20;;
3698;SDS011;1865;50.918;7.092;2022-10-31T06:32:54;18.80;;;7.27;;
3698;SDS011;1865;50.918;7.092;2022-10-31T06:35:28;16.80;;;6.90;;
3698;SDS011;1865;50.918;7.092;2022-10-31T06:37:54;21.83;;;6.90;;
3698;SDS011;1865;50.918;7.092;2022-10-31T06:40:20;21.60;;;7.90;;
3698;SDS011;1865;50.918;7.092;2022-10-31T06:42:46;27.17;;;7.33;;
3698;SDS011;1865;50.918;7.092;2022-10-31T06:45:13;14.10;;;7.00;;
3698;SDS011;1865;50.918;7.092;2022-10-31T06:47:38;15.40;;;6.40;;
3698;SDS011;1865;50.918;7.092;2022-10-31T06:50:04;18.10;;;6.97;;
3698;SDS011;1865;50.918;7.092;2022-10-31T06:52:30;16.10;;;7.07;;
3698;SDS011;1865;50.918;7.092;2022-10-31T06:54:56;14.83;;;6.80;;
3698;SDS011;1865;50.918;7.092;2022-10-31T06:57:21;18.77;;;7.97;;
3698;SDS011;1865;50.918;7.092;2022-10-31T06:59:48;22.77;;;7.90;;
3698;SDS011;1865;50.918;7.092;2022-10-31T07:02:14;15.63;;;7.33;;
3698;SDS011;1865;50.918;7.092;2022-10-31T07:04:39;24.53;;;7.07;;
3698;SDS011;1865;50.918;7.092;2022-10-31T07:07:05;24.93;;;7.00;;
3698;SDS011;1865;50.918;7.092;2022-10-31T07:09:31;12.83;;;7.00;;
3698;SDS011;1865;50.918;7.092;2022-10-31T07:11:57;20.33;;;7.70;;
3698;SDS011;1865;50.918;7.092;2022-10-31T07:14:23;17.80;;;7.17;;
3698;SDS011;1865;50.918;7.092;2022-10-31T07:16:49;17.70;;;7.40;;
3698;SDS011;1865;50.918;7.092;2022-10-31T07:19:15;20.67;;;7.40;;
3698;SDS011;1865;50.918;7.092;2022-10-31T07:21:41;14.20;;;6.83;;
3698;SDS011;1865;50.918;7.092;2022-10-31T07:24:06;20.40;;;7.00;;
3698;SDS011;1865;50.918;7.092;2022-10-31T07:26:32;13.83;;;7.00;;
3698;SDS011;1865;50.918;7.092;2022-10-31T07:28:57;18.10;;;8.53;;
3698;SDS011;1865;50.918;7.092;2022-10-31T07:31:24;20.57;;;7.13;;
3698;SDS011;1865;50.918;7.092;2022-10-31T07:33:50;18.60;;;7.50;;
3698;SDS011;1865;50.918;7.092;2022-10-31T07:36:17;21.47;;;7.80;;
3698;SDS011;1865;50.918;7.092;2022-10-31T07:38:44;14.80;;;7.60;;
3698;SDS011;1865;50.918;7.092;2022-10-31T07:41:10;16.77;;;7.33;;
3698;SDS011;1865;50.918;7.092;2022-10-31T07:43:36;17.73;;;7.73;;
3698;SDS011;1865;50.918;7.092;2022-10-31T07:46:02;20.80;;;7.07;;
3698;SDS011;1865;50.918;7.092;2022-10-31T07:48:28;15.40;;;7.20;;
3698;SDS011;1865;50.918;7.092;2022-10-31T07:50:56;16.87;;;7.47;;
3698;SDS011;1865;50.918;7.092;2022-10-31T07:53:22;15.10;;;7.47;;
3698;SDS011;1865;50.918;7.092;2022-10-31T07:55:47;19.17;;;7.97;;
3698;SDS011;1865;50.918;7.092;2022-10-31T07:58:15;20.40;;;8.17;;
3698;SDS011;1865;50.918;7.092;2022-10-31T08:00:41;18.10;;;7.73;;
3698;SDS011;1865;50.918;7.092;2022-10-31T08:03:13;21.80;;;7.80;;
3698;SDS011;1865;50.918;7.092;2022-10-31T08:05:40;15.47;;;7.70;;
3698;SDS011;1865;50.918;7.092;2022-10-31T08:08:06;18.13;;;7.13;;
3698;SDS011;1865;50.918;7.092;2022-10-31T08:10:34;17.20;;;7.57;;
3698;SDS011;1865;50.918;7.092;2022-10-31T08:13:01;16.00;;;7.90;;
3698;SDS011;1865;50.918;7.092;2022-10-31T08:15:29;26.27;;;8.70;;
3698;SDS011;1865;50.918;7.092;2022-10-31T08:17:55;17.17;;;6.97;;
3698;SDS011;1865;50.918;7.092;2022-10-31T08:20:21;18.07;;;7.93;;
3698;SDS011;1865;50.918;7.092;2022-10-31T08:22:57;24.00;;;8.10;;
3698;SDS011;1865;50.918;7.092;2022-10-31T08:25:24;17.70;;;8.10;;
3698;SDS011;1865;50.918;7.092;2022-10-31T08:27:51;17.57;;;7.90;;
3698;SDS011;1865;50.918;7.092;2022-10-31T08:30:19;15.33;;;7.47;;
3698;SDS011;1865;50.918;7.092;2022-10-31T08:32:45;25.87;;;8.20;;
3698;SDS011;1865;50.918;7.092;2022-10-31T08:35:11;22.40;;;8.53;;
3698;SDS011;1865;50.918;7.092;2022-10-31T08:37:39;14.80;;;7.67;;
3698;SDS011;1865;50.918;7.092;2022-10-31T08:40:05;17.40;;;7.90;;
3698;SDS011;1865;50.918;7.092;2022-10-31T08:42:31;22.73;;;8.17;;
3698;SDS011;1865;50.918;7.092;2022-10-31T08:44:57;18.07;;;8.30;;
3698;SDS011;1865;50.918;7.092;2022-10-31T08:47:23;15.00;;;6.53;;
3698;SDS011;1865;50.918;7.092;2022-10-31T08:49:48;23.70;;;7.87;;
3698;SDS011;1865;50.918;7.092;2022-10-31T08:52:14;19.03;;;8.07;;
3698;SDS011;1865;50.918;7.092;2022-10-31T08:54:42;15.47;;;7.40;;
3698;SDS011;1865;50.918;7.092;2022-10-31T08:57:08;14.97;;;6.80;;
3698;SDS011;1865;50.918;7.092;2022-10-31T08:59:33;25.40;;;8.43;;
3698;SDS011;1865;50.918;7.092;2022-10-31T09:01:59;22.57;;;6.67;;
3698;SDS011;1865;50.918;7.092;2022-10-31T09:04:25;25.53;;;8.53;;
3698;SDS011;1865;50.918;7.092;2022-10-31T09:06:50;20.70;;;7.50;;
3698;SDS011;1865;50.918;7.092;2022-10-31T09:09:16;20.57;;;8.30;;
3698;SDS011;1865;50.918;7.092;2022-10-31T09:11:41;17.20;;;7.50;;
3698;SDS011;1865;50.918;7.092;2022-10-31T09:14:06;17.20;;;7.33;;
3698;SDS011;1865;50.918;7.092;2022-10-31T09:16:32;21.93;;;7.30;;
3698;SDS011;1865;50.918;7.092;2022-10-31T09:18:57;19.03;;;7.80;;
3698;SDS011;1865;50.918;7.092;2022-10-31T09:21:23;19.30;;;7.67;;
3698;SDS011;1865;50.918;7.092;2022-10-31T09:23:50;16.53;;;6.83;;
3698;SDS011;1865;50.918;7.092;2022-10-31T09:26:18;20.70;;;8.40;;
3698;SDS011;1865;50.918;7.092;2022-10-31T09:28:44;20.97;;;7.70;;
3698;SDS011;1865;50.918;7.092;2022-10-31T09:31:11;12.40;;;6.73;;
3698;SDS011;1865;50.918;7.092;2022-10-31T09:33:38;22.53;;;6.97;;
3698;SDS011;1865;50.918;7.092;2022-10-31T09:36:08;17.83;;;6.73;;
3698;SDS011;1865;50.918;7.092;2022-10-31T09:38:34;16.20;;;6.63;;
3698;SDS011;1865;50.918;7.092;2022-10-31T09:41:18;16.87;;;6.73;;
3698;SDS011;1865;50.918;7.092;2022-10-31T09:47:07;27.07;;;8.70;;
3698;SDS011;1865;50.918;7.092;2022-10-31T09:49:53;19.53;;;6.90;;
3698;SDS011;1865;50.918;7.092;2022-10-31T09:52:33;22.80;;;7.20;;
3698;SDS011;1865;50.918;7.092;2022-10-31T09:55:05;21.87;;;7.50;;
3698;SDS011;1865;50.918;7.092;2022-10-31T09:57:44;14.57;;;6.13;;
3698;SDS011;1865;50.918;7.092;2022-10-31T10:00:19;22.33;;;7.13;;
3698;SDS011;1865;50.918;7.092;2022-10-31T10:02:51;21.67;;;6.93;;
3698;SDS011;1865;50.918;7.092;2022-10-31T10:05:25;20.17;;;7.27;;
3698;SDS011;1865;50.918;7.092;2022-10-31T10:08:17;18.63;;;5.77;;
3698;SDS011;1865;50.918;7.092;2022-10-31T10:10:49;21.83;;;7.33;;
3698;SDS011;1865;50.918;7.092;2022-10-31T10:16:20;20.50;;;7.07;;
3698;SDS011;1865;50.918;7.092;2022-10-31T10:22:08;20.37;;;6.93;;
3698;SDS011;1865;50.918;7.092;2022-10-31T10:24:56;19.07;;;6.83;;
3698;SDS011;1865;50.918;7.092;2022-10-31T10:30:18;17.03;;;6.73;;
3698;SDS011;1865;50.918;7.092;2022-10-31T10:33:08;21.37;;;6.60;;
3698;SDS011;1865;50.918;7.092;2022-10-31T10:35:44;18.27;;;6.63;;
3698;SDS011;1865;50.918;7.092;2022-10-31T10:41:05;21.90;;;6.50;;
3698;SDS011;1865;50.918;7.092;2022-10-31T10:43:38;25.63;;;6.33;;
3698;SDS011;1865;50.918;7.092;2022-10-31T10:54:28;29.53;;;6.00;;
3698;SDS011;1865;50.918;7.092;2022-10-31T11:00:18;17.50;;;6.00;;
3698;SDS011;1865;50.918;7.092;2022-10-31T11:02:52;24.17;;;6.50;;
3698;SDS011;1865;50.918;7.092;2022-10-31T11:05:52;16.90;;;6.70;;
3698;SDS011;1865;50.918;7.092;2022-10-31T11:08:24;20.47;;;6.23;;
3698;SDS011;1865;50.918;7.092;2022-10-31T11:11:01;16.33;;;5.93;;
3698;SDS011;1865;50.918;7.092;2022-10-31T11:13:50;18.37;;;6.40;;
3698;SDS011;1865;50.918;7.092;2022-10-31T11:19:16;19.63;;;6.60;;
3698;SDS011;1865;50.918;7.092;2022-10-31T11:21:46;23.33;;;7.13;;
3698;SDS011;1865;50.918;7.092;2022-10-31T11:24:16;17.87;;;6.60;;
3698;SDS011;1865;50.918;7.092;2022-10-31T11:26:44;19.60;;;7.60;;
3698;SDS011;1865;50.918;7.092;2022-10-31T11:29:16;20.57;;;7.53;;
3698;SDS011;1865;50.918;7.092;2022-10-31T11:31:45;16.80;;;6.70;;
3698;SDS011;1865;50.918;7.092;2022-10-31T11:34:15;22.73;;;6.43;;
3698;SDS011;1865;50.918;7.092;2022-10-31T11:36:46;25.93;;;5.60;;
3698;SDS011;1865;50.918;7.092;2022-10-31T11:39:15;18.20;;;6.47;;
3698;SDS011;1865;50.918;7.092;2022-10-31T11:41:48;16.03;;;5.10;;
3698;SDS011;1865;50.918;7.092;2022-10-31T11:44:27;24.50;;;6.37;;
3698;SDS011;1865;50.918;7.092;2022-10-31T11:46:55;13.53;;;5.30;;
3698;SDS011;1865;50.918;7.092;2022-10-31T11:52:06;20.60;;;5.37;;
3698;SDS011;1865;50.918;7.092;2022-10-31T11:54:54;21.60;;;5.67;;
3698;SDS011;1865;50.918;7.092;2022-10-31T11:57:33;18.17;;;5.20;;
3698;SDS011;1865;50.918;7.092;2022-10-31T12:00:31;15.27;;;5.57;;
3698;SDS011;1865;50.918;7.092;2022-10-31T12:03:23;17.40;;;5.73;;
3698;SDS011;1865;50.918;7.092;2022-10-31T12:06:18;14.83;;;6.07;;
3698;SDS011;1865;50.918;7.092;2022-10-31T12:08:49;15.77;;;5.83;;
3698;SDS011;1865;50.918;7.092;2022-10-31T12:22:25;13.63;;;4.70;;
3698;SDS011;1865;50.918;7.092;2022-10-31T12:30:58;14.70;;;5.00;;
3698;SDS011;1865;50.918;7.092;2022-10-31T12:36:29;13.97;;;4.13;;
3698;SDS011;1865;50.918;7.092;2022-10-31T12:41:57;14.97;;;4.53;;
3698;SDS011;1865;50.918;7.092;2022-10-31T12:50:22;16.87;;;4.50;;
3698;SDS011;1865;50.918;7.092;2022-10-31T12:53:16;13.70;;;4.70;;
3698;SDS011;1865;50.918;7.092;2022-10-31T12:56:07;23.03;;;5.20;;
3698;SDS011;1865;50.918;7.092;2022-10-31T12:58:47;16.77;;;5.63;;
3698;SDS011;1865;50.918;7.092;2022-10-31T13:01:24;14.73;;;5.00;;
3698;SDS011;1865;50.918;7.092;2022-10-31T13:04:05;26.57;;;5.37;;
3698;SDS011;1865;50.918;7.092;2022-10-31T13:06:42;16.80;;;3.90;;
3698;SDS011;1865;50.918;7.092;2022-10-31T13:09:19;20.33;;;4.70;;
3698;SDS011;1865;50.918;7.092;2022-10-31T13:11:53;14.07;;;4.40;;
3698;SDS011;1865;50.918;7.092;2022-10-31T13:14:28;19.20;;;4.60;;
3698;SDS011;1865;50.918;7.092;2022-10-31T13:16:58;19.27;;;4.87;;
3698;SDS011;1865;50.918;7.092;2022-10-31T13:19:27;15.70;;;4.30;;
3698;SDS011;1865;50.918;7.092;2022-10-31T13:27:17;17.37;;;4.30;;
3698;SDS011;1865;50.918;7.092;2022-10-31T13:32:37;15.33;;;3.67;;
3698;SDS011;1865;50.918;7.092;2022-10-31T13:35:19;21.07;;;4.00;;
3698;SDS011;1865;50.918;7.092;2022-10-31T13:40:42;16.73;;;3.53;;
3698;SDS011;1865;50.918;7.092;2022-10-31T13:46:21;18.67;;;4.07;;
3698;SDS011;1865;50.918;7.092;2022-10-31T13:48:59;16.50;;;3.73;;
3698;SDS011;1865;50.918;7.092;2022-10-31T13:51:27;21.40;;;4.20;;
3698;SDS011;1865;50.918;7.092;2022-10-31T13:56:30;14.97;;;3.97;;
3698;SDS011;1865;50.918;7.092;2022-10-31T13:58:59;17.53;;;3.97;;
3698;SDS011;1865;50.918;7.092;2022-10-31T14:01:25;14.27;;;4.50;;
3698;SDS011;1865;50.918;7.092;2022-10-31T14:04:36;16.23;;;4.40;;
3698;SDS011;1865;50.918;7.092;2022-10-31T14:09:35;16.33;;;3.90;;
3698;SDS011;1865;50.918;7.092;2022-10-31T14:12:07;16.90;;;4.40;;
3698;SDS011;1865;50.918;7.092;2022-10-31T14:14:47;18.07;;;4.20;;
3698;SDS011;1865;50.918;7.092;2022-10-31T14:17:20;21.00;;;4.70;;
3698;SDS011;1865;50.918;7.092;2022-10-31T14:22:46;16.67;;;4.20;;
3698;SDS011;1865;50.918;7.092;2022-10-31T14:25:31;14.10;;;4.27;;
3698;SDS011;1865;50.918;7.092;2022-10-31T14:27:59;20.77;;;3.83;;
3698;SDS011;1865;50.918;7.092;2022-10-31T14:30:27;20.30;;;3.90;;
3698;SDS011;1865;50.918;7.092;2022-10-31T14:32:56;20.40;;;4.43;;
3698;SDS011;1865;50.918;7.092;2022-10-31T14:35:32;29.53;;;4.90;;
3698;SDS011;1865;50.918;7.092;2022-10-31T14:38:15;21.03;;;3.80;;
3698;SDS011;1865;50.918;7.092;2022-10-31T14:41:03;15.03;;;3.73;;
3698;SDS011;1865;50.918;7.092;2022-10-31T14:46:32;29.30;;;4.27;;
3698;SDS011;1865;50.918;7.092;2022-10-31T14:52:08;14.00;;;3.93;;
3698;SDS011;1865;50.918;7.092;2022-10-31T14:54:43;12.43;;;3.60;;
3698;SDS011;1865;50.918;7.092;2022-10-31T14:57:15;14.23;;;4.13;;
3698;SDS011;1865;50.918;7.092;2022-10-31T14:59:46;17.73;;;3.90;;
3698;SDS011;1865;50.918;7.092;2022-10-31T15:02:27;19.00;;;4.00;;
3698;SDS011;1865;50.918;7.092;2022-10-31T15:04:59;14.57;;;4.20;;
3698;SDS011;1865;50.918;7.092;2022-10-31T15:07:26;19.67;;;3.80;;
3698;SDS011;1865;50.918;7.092;2022-10-31T15:09:59;13.90;;;4.00;;
3698;SDS011;1865;50.918;7.092;2022-10-31T15:12:31;19.93;;;3.87;;
3698;SDS011;1865;50.918;7.092;2022-10-31T15:15:13;20.17;;;4.97;;
3698;SDS011;1865;50.918;7.092;2022-10-31T15:17:43;21.33;;;4.20;;
3698;SDS011;1865;50.918;7.092;2022-10-31T15:20:11;19.93;;;4.33;;
3698;SDS011;1865;50.918;7.092;2022-10-31T15:22:41;19.13;;;3.90;;
3698;SDS011;1865;50.918;7.092;2022-10-31T15:25:12;14.10;;;2.90;;
3698;SDS011;1865;50.918;7.092;2022-10-31T15:27:42;18.07;;;3.40;;
3698;SDS011;1865;50.918;7.092;2022-10-31T15:30:22;15.13;;;3.67;;
3698;SDS011;1865;50.918;7.092;2022-10-31T15:32:51;12.23;;;3.87;;
3698;SDS011;1865;50.918;7.092;2022-10-31T15:35:28;19.43;;;3.70;;
3698;SDS011;1865;50.918;7.092;2022-10-31T15:37:55;19.17;;;3.60;;
3698;SDS011;1865;50.918;7.092;2022-10-31T15:40:23;17.40;;;3.70;;
3698;SDS011;1865;50.918;7.092;2022-10-31T15:43:00;15.90;;;3.27;;
3698;SDS011;1865;50.918;7.092;2022-10-31T15:45:34;18.63;;;3.40;;
3698;SDS011;1865;50.918;7.092;2022-10-31T15:48:00;16.67;;;3.90;;
3698;SDS011;1865;50.918;7.092;2022-10-31T15:50:34;19.37;;;3.70;;
3698;SDS011;1865;50.918;7.092;2022-10-31T15:53:02;23.90;;;5.20;;
3698;SDS011;1865;50.918;7.092;2022-10-31T15:55:38;32.93;;;3.77;;
3698;SDS011;1865;50.918;7.092;2022-10-31T15:58:13;19.83;;;3.53;;
3698;SDS011;1865;50.918;7.092;2022-10-31T16:00:41;16.17;;;3.70;;
3698;SDS011;1865;50.918;7.092;2022-10-31T16:03:24;14.07;;;3.73;;
3698;SDS011;1865;50.918;7.092;2022-10-31T16:05:55;17.97;;;3.50;;
3698;SDS011;1865;50.918;7.092;2022-10-31T16:13:33;22.20;;;4.33;;
3698;SDS011;1865;50.918;7.092;2022-10-31T16:16:03;22.37;;;3.90;;
3698;SDS011;1865;50.918;7.092;2022-10-31T16:18:37;16.13;;;3.40;;
3698;SDS011;1865;50.918;7.092;2022-10-31T16:21:06;12.90;;;2.90;;
3698;SDS011;1865;50.918;7.092;2022-10-31T16:23:34;14.23;;;3.20;;
3698;SDS011;1865;50.918;7.092;2022-10-31T16:26:06;13.50;;;3.27;;
3698;SDS011;1865;50.918;7.092;2022-10-31T16:28:33;17.10;;;3.70;;
3698;SDS011;1865;50.918;7.092;2022-10-31T16:31:11;12.30;;;3.03;;
3698;SDS011;1865;50.918;7.092;2022-10-31T16:33:38;15.73;;;3.80;;
3698;SDS011;1865;50.918;7.092;2022-10-31T16:38:57;18.13;;;3.60;;
3698;SDS011;1865;50.918;7.092;2022-10-31T16:41:23;15.00;;;3.90;;
3698;SDS011;1865;50.918;7.092;2022-10-31T16:43:50;19.07;;;3.60;;
3698;SDS011;1865;50.918;7.092;2022-10-31T16:46:18;20.50;;;3.60;;
3698;SDS011;1865;50.918;7.092;2022-10-31T16:48:51;30.07;;;4.33;;
3698;SDS011;1865;50.918;7.092;2022-10-31T16:51:17;21.80;;;4.23;;
3698;SDS011;1865;50.918;7.092;2022-10-31T16:53:42;17.93;;;3.73;;
3698;SDS011;1865;50.918;7.092;2022-10-31T16:56:18;10.47;;;3.17;;
3698;SDS011;1865;50.918;7.092;2022-10-31T16:58:51;17.07;;;4.33;;
3698;SDS011;1865;50.918;7.092;2022-10-31T17:01:16;24.83;;;4.30;;
3698;SDS011;1865;50.918;7.092;2022-10-31T17:03:42;14.53;;;3.60;;
3698;SDS011;1865;50.918;7.092;2022-10-31T17:06:13;12.10;;;3.50;;
3698;SDS011;1865;50.918;7.092;2022-10-31T17:08:39;14.90;;;3.27;;
3698;SDS011;1865;50.918;7.092;2022-10-31T17:11:04;16.40;;;3.80;;
3698;SDS011;1865;50.918;7.092;2022-10-31T17:13:33;19.57;;;4.70;;